createdAt,value
2023-03-13T00:03:39.703Z,24.40
2023-03-13T00:09:34.469Z,24.23
2023-03-13T00:15:27.883Z,27.80
2023-03-13T00:21:23.677Z,21.67
2023-03-13T00:27:18.039Z,28.70
2023-03-13T00:33:11.086Z,26.37
2023-03-13T00:39:06.094Z,24.97
2023-03-13T00:45:02.629Z,19.67
2023-03-13T00:50:56.319Z,28.63
2023-03-13T00:56:50.084Z,23.87
2023-03-13T01:02:45.429Z,25.57
2023-03-13T01:08:39.027Z,25.73
2023-03-13T01:14:32.093Z,28.40
2023-03-13T01:20:27.017Z,30.83
2023-03-13T01:26:21.617Z,27.60
2023-03-13T01:32:15.119Z,29.60
2023-03-13T01:38:10.446Z,26.53
2023-03-13T01:44:03.588Z,24.90
2023-03-13T01:50:00.839Z,29.13
2023-03-13T01:56:12.803Z,32.23
2023-03-13T02:02:08.288Z,34.83
2023-03-13T02:08:06.003Z,35.63
2023-03-13T02:14:01.790Z,24.37
2023-03-13T02:19:55.297Z,31.57
2023-03-13T02:25:52.515Z,24.70
2023-03-13T02:31:58.997Z,23.27
2023-03-13T02:37:56.122Z,26.27
2023-03-13T02:43:52.471Z,28.87
2023-03-13T02:49:46.106Z,29.63
2023-03-13T02:55:42.420Z,18.63
2023-03-13T03:01:39.438Z,28.23
2023-03-13T03:07:33.069Z,21.87
2023-03-13T03:13:26.374Z,27.53
2023-03-13T03:19:20.963Z,28.03
2023-03-13T03:25:14.016Z,16.83
2023-03-13T03:31:08.556Z,22.07
2023-03-13T03:37:04.279Z,23.67
2023-03-13T03:42:57.613Z,17.83
2023-03-13T03:48:51.236Z,16.47
2023-03-13T03:54:45.980Z,21.57
2023-03-13T04:00:41.265Z,18.00
2023-03-13T04:06:34.434Z,20.33
2023-03-13T04:12:31.035Z,19.37
2023-03-13T04:18:24.758Z,23.17
2023-03-13T04:24:17.945Z,21.13
2023-03-13T04:30:14.045Z,24.00
2023-03-13T04:36:25.874Z,21.03
2023-03-13T04:42:37.906Z,11.20
2023-03-13T04:48:50.635Z,24.43
2023-03-13T04:55:19.188Z,16.63
2023-03-13T05:01:26.793Z,26.07
2023-03-13T05:07:39.177Z,19.80
2023-03-13T05:13:51.152Z,20.57
2023-03-13T05:20:02.885Z,19.70
2023-03-13T05:26:08.464Z,22.03
2023-03-13T05:32:24.175Z,19.50
2023-03-13T05:38:17.490Z,19.33
2023-03-13T05:44:30.359Z,16.37
2023-03-13T05:50:47.421Z,16.40
2023-03-13T05:57:19.482Z,20.33
2023-03-13T06:03:40.453Z,13.67
2023-03-13T06:09:35.178Z,11.67
2023-03-13T06:15:31.715Z,15.27
2023-03-13T06:21:40.583Z,7.53
2023-03-13T06:27:33.844Z,11.83
2023-03-13T06:33:27.150Z,5.40
2023-03-13T06:39:21.830Z,7.70
2023-03-13T06:45:15.148Z,4.83
2023-03-13T06:51:12.541Z,7.80
2023-03-13T06:57:07.027Z,8.53
2023-03-13T07:03:00.060Z,7.40
2023-03-13T07:08:53.293Z,5.50
2023-03-13T07:14:47.647Z,5.97
2023-03-13T07:20:40.714Z,5.33
2023-03-13T07:26:33.960Z,4.03
2023-03-13T07:32:32.744Z,4.30
2023-03-13T07:38:26.109Z,4.73
2023-03-13T07:44:19.643Z,6.50
2023-03-13T07:50:14.575Z,5.23
2023-03-13T07:56:09.464Z,3.23
2023-03-13T08:02:03.750Z,4.07
2023-03-13T08:07:58.365Z,5.50
2023-03-13T08:13:52.003Z,5.30
2023-03-13T08:19:45.232Z,4.60
2023-03-13T08:25:39.641Z,7.40
2023-03-13T08:31:34.746Z,5.83
2023-03-13T08:37:27.762Z,6.10
2023-03-13T08:43:22.120Z,4.00
2023-03-13T08:49:17.800Z,5.07
2023-03-13T08:55:11.729Z,5.60
2023-03-13T09:01:08.547Z,6.70
2023-03-13T09:07:01.790Z,7.60
2023-03-13T09:12:55.053Z,8.33
2023-03-13T09:18:50.688Z,9.10
2023-03-13T09:24:45.166Z,8.30
2023-03-13T09:30:38.313Z,6.87
2023-03-13T09:36:32.743Z,8.60
2023-03-13T09:42:33.539Z,7.40
2023-03-13T09:48:32.666Z,7.97
2023-03-13T09:54:33.325Z,8.27
2023-03-13T10:00:29.748Z,10.10
2023-03-13T10:06:24.917Z,8.63
2023-03-13T10:12:21.884Z,7.37
2023-03-13T10:18:19.590Z,7.53
2023-03-13T10:24:19.214Z,11.30
2023-03-13T10:30:29.685Z,7.50
2023-03-13T10:36:23.930Z,7.03
2023-03-13T10:42:24.800Z,5.53
2023-03-13T10:48:22.370Z,7.33
2023-03-13T10:54:17.941Z,7.63
2023-03-13T11:00:30.359Z,7.20
2023-03-13T11:06:33.099Z,5.53
2023-03-13T11:12:27.817Z,4.30
2023-03-13T11:18:26.584Z,4.20
2023-03-13T11:24:28.073Z,6.40
2023-03-13T11:30:38.599Z,6.00
2023-03-13T11:36:36.457Z,4.10
2023-03-13T11:42:50.686Z,4.10
2023-03-13T11:49:09.560Z,3.77
2023-03-13T11:55:26.307Z,4.53
2023-03-13T12:01:21.974Z,5.73
2023-03-13T12:07:22.658Z,3.60
2023-03-13T12:13:20.672Z,3.00
2023-03-13T12:19:21.490Z,3.77
2023-03-13T12:25:21.434Z,2.37
2023-03-13T12:31:22.649Z,3.40
2023-03-13T12:37:24.863Z,5.13
2023-03-13T12:43:22.711Z,4.30
2023-03-13T12:49:57.184Z,4.77
2023-03-13T12:56:21.353Z,1.30
2023-03-13T13:02:19.445Z,3.40
2023-03-13T13:08:25.694Z,3.33
2023-03-13T13:14:55.811Z,4.17
2023-03-13T13:21:11.310Z,4.63
2023-03-13T13:27:04.440Z,3.83
2023-03-13T13:33:16.484Z,2.80
2023-03-13T13:39:36.795Z,2.37
2023-03-13T13:45:34.328Z,2.07
2023-03-13T13:51:28.770Z,5.20
2023-03-13T13:57:25.221Z,4.20
2023-03-13T14:03:21.827Z,1.93
2023-03-13T14:09:24.492Z,4.30
2023-03-13T14:15:21.284Z,4.50
2023-03-13T14:21:14.607Z,3.13
2023-03-13T14:27:17.351Z,2.20
2023-03-13T14:33:12.466Z,2.00
2023-03-13T14:39:06.799Z,3.67
2023-03-13T14:45:00.007Z,2.23
2023-03-13T14:51:14.756Z,4.03
2023-03-13T14:57:21.148Z,4.10
2023-03-13T15:03:22.069Z,3.57
2023-03-13T15:09:19.925Z,3.13
2023-03-13T15:15:13.440Z,3.97
2023-03-13T15:21:22.573Z,3.13
2023-03-13T15:27:19.999Z,2.70
2023-03-13T15:33:16.290Z,2.23
2023-03-13T15:39:15.022Z,2.97
2023-03-13T15:45:10.669Z,2.87
2023-03-13T15:51:04.597Z,1.83
2023-03-13T15:56:57.926Z,1.80
2023-03-13T16:02:52.734Z,3.00
2023-03-13T16:08:46.464Z,1.27
2023-03-13T16:14:40.756Z,1.77
2023-03-13T16:20:36.178Z,3.30
2023-03-13T16:26:32.147Z,0.90
2023-03-13T16:32:25.896Z,0.77
2023-03-13T16:38:21.342Z,1.97
2023-03-13T16:44:14.527Z,2.17
2023-03-13T16:50:23.621Z,1.13
2023-03-13T16:56:24.002Z,1.20
2023-03-13T17:02:18.609Z,2.43
2023-03-13T17:08:13.973Z,2.40
2023-03-13T17:14:09.424Z,4.67
2023-03-13T17:20:04.810Z,2.50
2023-03-13T17:25:59.003Z,2.50
2023-03-13T17:31:53.531Z,4.97
2023-03-13T17:37:47.019Z,2.13
2023-03-13T17:43:40.551Z,3.70
2023-03-13T17:49:34.940Z,2.27
2023-03-13T17:55:28.013Z,1.77
2023-03-13T18:01:23.217Z,2.30
2023-03-13T18:07:24.017Z,1.07
2023-03-13T18:13:17.381Z,1.27
2023-03-13T18:19:15.205Z,3.00
2023-03-13T18:25:11.410Z,2.00
2023-03-13T18:31:05.050Z,5.80
2023-03-13T18:37:03.575Z,1.77
2023-03-13T18:42:58.473Z,2.03
2023-03-13T18:48:52.179Z,2.93
2023-03-13T18:54:45.486Z,3.60
2023-03-13T19:00:40.583Z,3.07
2023-03-13T19:06:35.578Z,3.80
2023-03-13T19:12:29.437Z,2.60
2023-03-13T19:18:24.276Z,3.10
2023-03-13T19:24:17.670Z,5.17
2023-03-13T19:30:18.659Z,2.13
2023-03-13T19:36:17.903Z,2.00
2023-03-13T19:42:11.479Z,6.40
2023-03-13T19:48:04.784Z,1.60
2023-03-13T19:53:59.572Z,2.87
2023-03-13T19:59:53.017Z,3.10
2023-03-13T20:05:59.647Z,3.33
2023-03-13T20:11:54.238Z,3.73
2023-03-13T20:17:47.388Z,5.37
2023-03-13T20:23:40.835Z,4.23
2023-03-13T20:29:35.779Z,3.57
2023-03-13T20:35:29.560Z,6.80
2023-03-13T20:41:25.634Z,8.27
2023-03-13T20:47:20.295Z,4.80
2023-03-13T20:53:14.976Z,5.27
2023-03-13T20:59:08.411Z,5.67
2023-03-13T21:05:03.138Z,4.93
2023-03-13T21:10:56.485Z,2.87
2023-03-13T21:16:50.016Z,3.37
2023-03-13T21:22:45.036Z,2.60
2023-03-13T21:28:39.098Z,3.30
2023-03-13T21:34:32.535Z,2.30
2023-03-13T21:40:28.808Z,3.30
2023-03-13T21:46:23.532Z,1.60
2023-03-13T21:52:16.761Z,2.20
2023-03-13T21:58:11.457Z,2.73
2023-03-13T22:04:05.032Z,1.53
2023-03-13T22:09:58.468Z,1.80
2023-03-13T22:15:53.271Z,5.40
2023-03-13T22:21:46.925Z,2.90
2023-03-13T22:27:40.427Z,2.60
2023-03-13T22:33:35.410Z,2.53
2023-03-13T22:39:28.682Z,5.73
2023-03-13T22:45:22.406Z,3.40
2023-03-13T22:51:17.043Z,2.43
2023-03-13T22:57:10.536Z,2.07
2023-03-13T23:03:03.857Z,4.00
2023-03-13T23:08:58.676Z,3.20
2023-03-13T23:14:52.542Z,3.47
2023-03-13T23:20:46.010Z,3.20
2023-03-13T23:26:40.898Z,5.77
2023-03-13T23:32:37.654Z,2.47
2023-03-13T23:38:30.870Z,3.37
2023-03-13T23:44:25.611Z,6.23
2023-03-13T23:50:18.789Z,2.70
2023-03-13T23:56:12.742Z,3.57
